createdAt,value
2018-04-29T00:00:07.130Z,0.00
2018-04-29T00:01:07.095Z,0.00
2018-04-29T00:02:07.044Z,0.00
2018-04-29T00:03:07.001Z,0.00
2018-04-29T00:04:06.957Z,0.00
2018-04-29T00:05:06.914Z,0.00
2018-04-29T00:06:06.872Z,0.00
2018-04-29T00:07:06.828Z,0.00
2018-04-29T00:08:06.786Z,0.00
2018-04-29T00:09:06.741Z,0.00
2018-04-29T00:10:06.698Z,0.00
2018-04-29T00:11:06.656Z,0.00
2018-04-29T00:12:06.612Z,0.00
2018-04-29T00:13:06.570Z,0.00
2018-04-29T00:14:06.526Z,0.00
2018-04-29T00:15:06.483Z,0.00
2018-04-29T00:16:06.446Z,0.00
2018-04-29T00:17:06.401Z,0.00
2018-04-29T00:18:06.353Z,0.00
2018-04-29T00:19:06.310Z,0.00
2018-04-29T00:20:06.266Z,0.00
2018-04-29T00:21:06.223Z,0.00
2018-04-29T00:22:06.180Z,0.00
2018-04-29T00:23:06.138Z,0.00
2018-04-29T00:24:06.101Z,0.00
2018-04-29T00:25:06.050Z,0.00
2018-04-29T00:26:06.008Z,0.00
2018-04-29T00:27:06.016Z,0.00
2018-04-29T00:28:05.920Z,0.00
2018-04-29T00:29:05.877Z,0.00
2018-04-29T00:30:05.843Z,0.00
2018-04-29T00:31:05.792Z,0.00
2018-04-29T00:32:05.747Z,0.00
2018-04-29T00:33:05.705Z,0.00
2018-04-29T00:34:05.675Z,0.00
2018-04-29T00:35:05.619Z,0.00
2018-04-29T00:36:05.576Z,0.00
2018-04-29T00:37:05.532Z,0.00
2018-04-29T00:38:05.489Z,0.00
2018-04-29T00:39:05.446Z,0.00
2018-04-29T00:40:05.409Z,0.00
2018-04-29T00:41:05.358Z,0.00
2018-04-29T00:42:05.315Z,0.00
2018-04-29T00:43:05.274Z,0.00
2018-04-29T00:44:05.229Z,0.00
2018-04-29T00:45:05.194Z,0.00
2018-04-29T00:46:05.143Z,0.00
2018-04-29T00:47:05.100Z,0.00
2018-04-29T00:48:05.059Z,0.00
2018-04-29T00:49:05.016Z,0.00
2018-04-29T00:50:04.970Z,0.00
2018-04-29T00:51:04.927Z,0.00
2018-04-29T00:52:04.883Z,0.00
2018-04-29T00:53:04.839Z,0.00
2018-04-29T00:54:04.797Z,0.00
2018-04-29T00:55:04.754Z,0.00
2018-04-29T00:56:04.715Z,0.00
2018-04-29T00:57:04.667Z,0.00
2018-04-29T00:58:04.624Z,0.00
2018-04-29T00:59:04.623Z,0.00
2018-04-29T01:00:04.537Z,0.00
2018-04-29T01:01:04.494Z,0.00
2018-04-29T01:02:04.454Z,0.00
2018-04-29T01:03:04.408Z,0.00
2018-04-29T01:04:04.365Z,0.00
2018-04-29T01:05:04.321Z,0.00
2018-04-29T01:06:04.380Z,0.00
2018-04-29T01:07:04.234Z,0.00
2018-04-29T01:08:04.190Z,0.00
2018-04-29T01:09:04.147Z,0.00
2018-04-29T01:10:04.105Z,0.00
2018-04-29T01:11:04.061Z,0.00
2018-04-29T01:12:04.016Z,0.00
2018-04-29T01:13:03.973Z,0.00
2018-04-29T01:14:03.930Z,0.00
2018-04-29T01:15:03.887Z,0.00
2018-04-29T01:16:03.842Z,0.00
2018-04-29T01:17:03.799Z,0.00
2018-04-29T01:18:03.756Z,0.00
2018-04-29T01:19:03.714Z,0.00
2018-04-29T01:20:03.668Z,0.00
2018-04-29T01:21:03.625Z,0.00
2018-04-29T01:22:03.586Z,0.00
2018-04-29T01:23:03.540Z,0.00
2018-04-29T01:24:03.494Z,0.00
2018-04-29T01:25:03.451Z,0.00
2018-04-29T01:26:03.407Z,0.00
2018-04-29T01:27:03.364Z,0.00
2018-04-29T01:28:03.320Z,0.00
2018-04-29T01:29:03.276Z,0.00
2018-04-29T01:30:03.236Z,0.00
2018-04-29T01:31:03.190Z,0.00
2018-04-29T01:32:03.145Z,0.00
2018-04-29T01:33:03.103Z,0.00
2018-04-29T01:34:03.059Z,0.00
2018-04-29T01:35:03.024Z,0.00
2018-04-29T01:36:02.971Z,0.00
2018-04-29T01:37:02.928Z,0.00
2018-04-29T01:38:02.885Z,0.00
2018-04-29T01:39:02.841Z,0.00
2018-04-29T01:40:02.799Z,0.00
2018-04-29T01:41:02.754Z,0.00
2018-04-29T01:42:02.711Z,0.00
2018-04-29T01:43:02.668Z,0.00
2018-04-29T01:44:02.623Z,0.00
2018-04-29T01:45:02.580Z,0.00
2018-04-29T01:46:02.537Z,0.00
2018-04-29T01:47:02.494Z,0.00
2018-04-29T01:48:02.449Z,0.00
2018-04-29T01:49:02.406Z,0.00
2018-04-29T01:50:02.363Z,0.00
2018-04-29T01:51:02.319Z,0.00
2018-04-29T01:52:02.275Z,0.00
2018-04-29T01:53:02.232Z,0.00
2018-04-29T01:54:02.193Z,0.00
2018-04-29T01:55:02.146Z,0.00
2018-04-29T01:56:02.110Z,0.00
2018-04-29T01:57:02.059Z,0.00
2018-04-29T01:58:02.015Z,0.00
2018-04-29T01:59:01.980Z,0.00
2018-04-29T02:00:01.928Z,0.00
2018-04-29T02:01:01.885Z,0.00
2018-04-29T02:02:01.841Z,0.00
2018-04-29T02:03:01.798Z,0.00
2018-04-29T02:04:01.754Z,0.00
2018-04-29T02:05:01.710Z,0.00
2018-04-29T02:06:01.667Z,0.00
2018-04-29T02:07:01.624Z,0.00
2018-04-29T02:08:01.579Z,0.00
2018-04-29T02:09:01.542Z,0.00
2018-04-29T02:10:01.494Z,0.00
2018-04-29T02:11:01.452Z,0.00
2018-04-29T02:12:01.406Z,0.00
2018-04-29T02:13:01.365Z,0.00
2018-04-29T02:14:01.319Z,0.00
2018-04-29T02:15:01.276Z,0.00
2018-04-29T02:16:01.232Z,0.00
2018-04-29T02:17:01.189Z,0.00
2018-04-29T02:18:01.145Z,0.00
2018-04-29T02:19:01.102Z,0.00
2018-04-29T02:20:01.057Z,0.00
2018-04-29T02:21:01.014Z,0.00
2018-04-29T02:22:00.971Z,0.00
2018-04-29T02:23:00.927Z,0.00
2018-04-29T02:24:00.883Z,0.00
2018-04-29T02:25:00.840Z,0.00
2018-04-29T02:26:00.802Z,0.00
2018-04-29T02:27:00.753Z,0.00
2018-04-29T02:28:00.708Z,0.00
2018-04-29T02:29:00.665Z,0.00
2018-04-29T02:30:00.628Z,0.00
2018-04-29T02:31:00.578Z,0.00
2018-04-29T02:32:00.539Z,0.00
2018-04-29T02:33:00.490Z,0.00
2018-04-29T02:34:00.446Z,0.00
2018-04-29T02:35:00.402Z,0.00
2018-04-29T02:36:00.358Z,0.00
2018-04-29T02:37:00.315Z,0.00
2018-04-29T02:38:00.272Z,0.00
2018-04-29T02:39:00.228Z,0.00
2018-04-29T02:40:00.183Z,0.00
2018-04-29T02:41:00.143Z,0.00
2018-04-29T02:42:00.096Z,0.00
2018-04-29T02:43:00.052Z,0.00
2018-04-29T02:44:00.012Z,0.00
2018-04-29T02:44:59.964Z,0.00
2018-04-29T02:45:59.921Z,0.00
2018-04-29T02:46:59.876Z,0.00
2018-04-29T02:47:59.831Z,0.00
2018-04-29T02:48:59.788Z,0.00
2018-04-29T02:49:59.744Z,0.00
2018-04-29T02:50:59.700Z,0.00
2018-04-29T02:51:59.656Z,0.00
2018-04-29T02:52:59.612Z,0.00
2018-04-29T02:53:59.568Z,0.00
2018-04-29T02:54:59.524Z,0.00
2018-04-29T02:55:59.480Z,0.00
2018-04-29T02:56:59.436Z,0.00
2018-04-29T02:57:59.395Z,0.00
2018-04-29T02:58:59.348Z,0.00
2018-04-29T02:59:59.303Z,0.00
2018-04-29T03:00:59.260Z,0.00
2018-04-29T03:01:59.219Z,0.00
2018-04-29T03:02:59.173Z,0.00
2018-04-29T03:03:59.128Z,0.00
2018-04-29T03:04:59.084Z,0.00
2018-04-29T03:05:59.040Z,0.00
2018-04-29T03:06:58.997Z,0.00
2018-04-29T03:07:58.951Z,0.00
2018-04-29T03:08:58.907Z,0.00
2018-04-29T03:09:58.864Z,0.00
2018-04-29T03:10:58.831Z,0.00
2018-04-29T03:11:58.775Z,0.00
2018-04-29T03:12:58.732Z,0.00
2018-04-29T03:13:58.688Z,0.00
2018-04-29T03:14:58.644Z,0.00
2018-04-29T03:15:58.599Z,0.00
2018-04-29T03:16:58.555Z,0.00
2018-04-29T03:17:58.512Z,0.00
2018-04-29T03:18:58.468Z,0.00
2018-04-29T03:19:58.422Z,0.00
2018-04-29T03:20:58.379Z,0.00
2018-04-29T03:21:58.385Z,0.00
2018-04-29T03:22:58.291Z,0.00
2018-04-29T03:23:58.251Z,0.00
2018-04-29T03:24:58.202Z,0.00
2018-04-29T03:25:58.159Z,0.00
2018-04-29T03:26:58.115Z,0.00
2018-04-29T03:27:58.070Z,0.00
2018-04-29T03:28:58.026Z,0.00
2018-04-29T03:29:57.983Z,0.00
2018-04-29T03:30:57.938Z,0.00
2018-04-29T03:31:57.893Z,0.00
2018-04-29T03:32:57.849Z,0.00
2018-04-29T03:33:57.805Z,0.00
2018-04-29T03:34:57.761Z,0.00
2018-04-29T03:35:57.717Z,0.00
2018-04-29T03:36:57.673Z,0.00
2018-04-29T03:37:57.629Z,0.00
2018-04-29T03:38:57.590Z,0.00
2018-04-29T03:39:57.539Z,0.00
2018-04-29T03:40:57.495Z,0.00
2018-04-29T03:41:57.452Z,5.63
2018-04-29T03:42:57.412Z,5.63
2018-04-29T03:43:57.362Z,5.63
2018-04-29T03:44:57.318Z,5.63
2018-04-29T03:45:57.274Z,5.63
2018-04-29T03:46:57.229Z,5.63
2018-04-29T03:47:57.198Z,5.63
2018-04-29T03:48:57.142Z,5.63
2018-04-29T03:49:57.096Z,5.63
2018-04-29T03:50:57.055Z,5.63
2018-04-29T03:51:57.010Z,11.25
2018-04-29T03:52:57.015Z,11.25
2018-04-29T03:53:56.919Z,11.25
2018-04-29T03:54:56.875Z,11.25
2018-04-29T03:55:56.958Z,11.25
2018-04-29T03:56:56.785Z,16.88
2018-04-29T03:57:56.746Z,16.88
2018-04-29T03:58:56.698Z,16.88
2018-04-29T03:59:56.652Z,16.88
2018-04-29T04:00:56.608Z,16.88
2018-04-29T04:01:56.564Z,16.88
2018-04-29T04:02:56.519Z,22.50
2018-04-29T04:03:56.474Z,22.50
2018-04-29T04:04:56.431Z,22.50
2018-04-29T04:05:56.386Z,28.13
2018-04-29T04:06:56.342Z,28.13
2018-04-29T04:07:56.296Z,28.13
2018-04-29T04:08:56.259Z,33.75
2018-04-29T04:09:56.208Z,33.75
2018-04-29T04:10:56.164Z,39.38
2018-04-29T04:11:56.120Z,39.38
2018-04-29T04:12:56.075Z,39.38
2018-04-29T04:13:56.032Z,45.00
2018-04-29T04:14:55.987Z,45.00
2018-04-29T04:15:55.942Z,45.00
2018-04-29T04:16:55.898Z,45.00
2018-04-29T04:17:55.854Z,45.00
2018-04-29T04:18:55.814Z,50.63
2018-04-29T04:19:55.765Z,50.63
2018-04-29T04:20:55.720Z,50.63
2018-04-29T04:21:55.677Z,50.63
2018-04-29T04:22:55.633Z,50.63
2018-04-29T04:23:55.593Z,50.63
2018-04-29T04:24:55.543Z,50.63
2018-04-29T04:25:55.500Z,50.63
2018-04-29T04:26:55.456Z,50.63
2018-04-29T04:27:55.411Z,50.63
2018-04-29T04:28:55.369Z,50.63
2018-04-29T04:29:55.324Z,45.00
2018-04-29T04:30:55.283Z,45.00
2018-04-29T04:31:55.234Z,45.00
2018-04-29T04:32:55.191Z,45.00
2018-04-29T04:33:55.147Z,45.00
2018-04-29T04:34:55.104Z,50.63
2018-04-29T04:35:55.058Z,50.63
2018-04-29T04:36:55.020Z,50.63
2018-04-29T04:37:54.971Z,50.63
2018-04-29T04:38:54.927Z,56.25
2018-04-29T04:39:54.883Z,56.25
2018-04-29T04:40:54.839Z,61.88
2018-04-29T04:41:54.796Z,61.88
2018-04-29T04:42:54.752Z,61.88
2018-04-29T04:43:54.710Z,61.88
2018-04-29T04:44:54.663Z,67.50
2018-04-29T04:45:54.619Z,73.13
2018-04-29T04:46:54.576Z,73.13
2018-04-29T04:47:54.531Z,78.75
2018-04-29T04:48:54.488Z,84.38
2018-04-29T04:49:54.444Z,90.00
2018-04-29T04:50:54.400Z,95.63
2018-04-29T04:51:54.355Z,95.63
2018-04-29T04:52:54.314Z,101.25
2018-04-29T04:53:54.272Z,101.25
2018-04-29T04:54:54.231Z,101.25
2018-04-29T04:55:54.181Z,101.25
2018-04-29T04:56:54.137Z,106.88
2018-04-29T04:57:54.093Z,106.88
2018-04-29T04:58:54.050Z,112.50
2018-04-29T04:59:54.005Z,112.50
2018-04-29T05:00:53.962Z,112.50
2018-04-29T05:01:53.919Z,118.13
2018-04-29T05:02:53.875Z,118.13
2018-04-29T05:03:53.832Z,118.13
2018-04-29T05:04:53.787Z,118.13
2018-04-29T05:05:53.744Z,118.13
2018-04-29T05:06:53.701Z,123.75
2018-04-29T05:07:53.656Z,129.38
2018-04-29T05:08:53.619Z,140.63
2018-04-29T05:09:53.569Z,151.88
2018-04-29T05:10:53.526Z,163.13
2018-04-29T05:11:53.481Z,168.75
2018-04-29T05:12:53.438Z,185.63
2018-04-29T05:13:53.394Z,191.25
2018-04-29T05:14:53.357Z,202.50
2018-04-29T05:15:53.307Z,213.75
2018-04-29T05:16:53.264Z,208.13
2018-04-29T05:17:53.220Z,225.00
2018-04-29T05:18:53.179Z,264.38
2018-04-29T05:19:53.133Z,264.38
2018-04-29T05:20:53.091Z,337.50
2018-04-29T05:21:53.046Z,371.25
2018-04-29T05:22:53.003Z,483.75
2018-04-29T05:23:52.960Z,781.88
2018-04-29T05:24:52.917Z,1125.00
2018-04-29T05:25:52.873Z,1265.63
2018-04-29T05:26:52.831Z,1378.13
2018-04-29T05:27:52.787Z,1535.63
2018-04-29T05:28:52.745Z,1507.50
2018-04-29T05:29:52.703Z,1524.38
2018-04-29T05:30:52.664Z,1490.63
2018-04-29T05:31:52.669Z,1451.25
2018-04-29T05:32:52.577Z,1468.13
2018-04-29T05:33:52.536Z,1372.50
2018-04-29T05:34:52.497Z,1507.50
2018-04-29T05:35:52.455Z,1366.88
2018-04-29T05:36:52.419Z,1383.75
2018-04-29T05:37:52.377Z,1074.38
2018-04-29T05:38:52.336Z,1170.00
2018-04-29T05:39:52.299Z,1260.00
2018-04-29T05:40:52.258Z,1552.50
2018-04-29T05:41:52.220Z,1254.38
2018-04-29T05:42:52.182Z,1417.50
2018-04-29T05:43:52.145Z,1327.50
2018-04-29T05:44:52.106Z,1411.88
2018-04-29T05:45:52.069Z,1541.25
2018-04-29T05:46:52.031Z,1507.50
2018-04-29T05:47:51.994Z,1389.38
2018-04-29T05:48:51.964Z,1524.38
2018-04-29T05:49:51.923Z,1676.25
2018-04-29T05:50:51.885Z,1676.25
2018-04-29T05:51:51.849Z,1732.50
2018-04-29T05:52:51.813Z,1749.38
2018-04-29T05:53:51.778Z,1378.13
2018-04-29T05:54:51.743Z,1715.63
2018-04-29T05:55:51.707Z,1693.13
2018-04-29T05:56:51.675Z,1698.75
2018-04-29T05:57:51.641Z,1755.00
2018-04-29T05:58:51.603Z,1760.63
2018-04-29T05:59:51.567Z,1721.25
2018-04-29T06:00:51.533Z,1670.63
2018-04-29T06:01:51.500Z,1620.00
2018-04-29T06:02:51.466Z,1766.25
2018-04-29T06:03:51.431Z,1653.75
2018-04-29T06:04:51.398Z,1344.38
2018-04-29T06:05:51.364Z,1215.00
2018-04-29T06:06:51.581Z,1451.25
2018-04-29T06:07:51.297Z,1530.00
2018-04-29T06:08:51.263Z,1400.63
2018-04-29T06:09:51.236Z,1479.38
2018-04-29T06:10:51.197Z,1445.63
2018-04-29T06:11:51.162Z,1215.00
2018-04-29T06:12:51.129Z,1389.38
2018-04-29T06:13:51.096Z,1051.88
2018-04-29T06:14:51.063Z,1063.13
2018-04-29T06:15:51.029Z,967.50
2018-04-29T06:16:50.996Z,1006.88
2018-04-29T06:17:50.968Z,1147.50
2018-04-29T06:18:50.930Z,1265.63
2018-04-29T06:19:50.895Z,1541.25
2018-04-29T06:20:50.862Z,1636.88
2018-04-29T06:21:50.829Z,1738.13
2018-04-29T06:22:50.796Z,1693.13
2018-04-29T06:23:50.761Z,1732.50
2018-04-29T06:24:50.728Z,1918.13
2018-04-29T06:25:50.696Z,2008.13
2018-04-29T06:26:50.666Z,1698.75
2018-04-29T06:27:50.629Z,1693.13
2018-04-29T06:28:50.597Z,1777.50
2018-04-29T06:29:50.564Z,1968.75
2018-04-29T06:30:50.531Z,2109.38
2018-04-29T06:31:50.563Z,2058.75
2018-04-29T06:32:50.466Z,1642.50
2018-04-29T06:33:50.434Z,1051.88
2018-04-29T06:34:50.403Z,579.38
2018-04-29T06:35:50.370Z,1732.50
2018-04-29T06:36:50.339Z,849.38
2018-04-29T06:37:50.307Z,551.25
2018-04-29T06:38:50.321Z,787.50
2018-04-29T06:39:50.243Z,663.75
2018-04-29T06:40:50.212Z,1383.75
2018-04-29T06:41:50.180Z,1282.50
2018-04-29T06:42:50.147Z,838.13
2018-04-29T06:43:50.115Z,877.50
2018-04-29T06:44:50.082Z,995.63
2018-04-29T06:45:50.053Z,1096.88
2018-04-29T06:46:50.057Z,1378.13
2018-04-29T06:47:49.984Z,1541.25
2018-04-29T06:48:49.955Z,1254.38
2018-04-29T06:49:49.921Z,495.00
2018-04-29T06:50:49.886Z,478.13
2018-04-29T06:51:49.852Z,540.00
2018-04-29T06:52:49.819Z,613.13
2018-04-29T06:53:49.786Z,1828.13
2018-04-29T06:54:49.754Z,1569.38
2018-04-29T06:55:49.719Z,1777.50
2018-04-29T06:56:49.690Z,1749.38
2018-04-29T06:57:49.653Z,1428.75
2018-04-29T06:58:49.620Z,1226.25
2018-04-29T06:59:49.588Z,708.75
2018-04-29T07:00:49.632Z,472.50
2018-04-29T07:01:49.522Z,663.75
2018-04-29T07:02:49.490Z,388.13
2018-04-29T07:03:49.456Z,309.38
2018-04-29T07:04:49.424Z,241.88
2018-04-29T07:05:49.390Z,219.38
2018-04-29T07:06:49.360Z,208.13
2018-04-29T07:07:49.323Z,208.13
2018-04-29T07:08:49.290Z,208.13
2018-04-29T07:09:49.256Z,202.50
2018-04-29T07:10:49.222Z,191.25
2018-04-29T07:11:49.188Z,180.00
2018-04-29T07:12:49.153Z,163.13
2018-04-29T07:13:49.119Z,151.88
2018-04-29T07:14:49.084Z,146.25
2018-04-29T07:15:49.048Z,135.00
2018-04-29T07:16:49.013Z,135.00
2018-04-29T07:17:48.976Z,135.00
2018-04-29T07:18:48.972Z,135.00
2018-04-29T07:19:48.905Z,140.63
2018-04-29T07:20:48.869Z,151.88
2018-04-29T07:21:48.832Z,163.13
2018-04-29T07:22:48.796Z,174.38
2018-04-29T07:23:48.757Z,191.25
2018-04-29T07:24:48.720Z,219.38
2018-04-29T07:25:48.683Z,247.50
2018-04-29T07:26:48.647Z,258.75
2018-04-29T07:27:48.607Z,348.75
2018-04-29T07:28:48.570Z,528.75
2018-04-29T07:29:48.533Z,309.38
2018-04-29T07:30:48.496Z,309.38
2018-04-29T07:31:48.457Z,298.13
2018-04-29T07:32:48.420Z,292.50
2018-04-29T07:33:48.382Z,292.50
2018-04-29T07:34:48.345Z,315.00
2018-04-29T07:35:48.306Z,399.38
2018-04-29T07:36:48.268Z,348.75
2018-04-29T07:37:48.230Z,376.88
2018-04-29T07:38:48.194Z,438.75
2018-04-29T07:39:48.216Z,556.88
2018-04-29T07:40:48.117Z,517.50
2018-04-29T07:41:48.079Z,478.13
2018-04-29T07:42:48.042Z,472.50
2018-04-29T07:43:48.003Z,540.00
2018-04-29T07:44:47.966Z,545.63
2018-04-29T07:45:47.929Z,596.25
2018-04-29T07:46:47.893Z,478.13
2018-04-29T07:47:47.854Z,691.88
2018-04-29T07:48:47.817Z,618.75
2018-04-29T07:49:47.780Z,1018.13
2018-04-29T07:50:47.743Z,1226.25
2018-04-29T07:51:47.706Z,753.75
2018-04-29T07:52:47.669Z,630.00
2018-04-29T07:53:47.633Z,450.00
2018-04-29T07:54:47.597Z,461.25
2018-04-29T07:55:47.564Z,1479.38
2018-04-29T07:56:47.524Z,731.25
2018-04-29T07:57:47.493Z,978.75
2018-04-29T07:58:47.454Z,1603.13
2018-04-29T07:59:47.417Z,1580.63
2018-04-29T08:00:47.404Z,1271.25
2018-04-29T08:01:47.353Z,1288.13
2018-04-29T08:02:47.315Z,1209.38
2018-04-29T08:03:47.282Z,1074.38
2018-04-29T08:04:47.247Z,1153.13
2018-04-29T08:05:47.214Z,967.50
2018-04-29T08:06:47.298Z,765.00
2018-04-29T08:07:47.151Z,624.38
2018-04-29T08:08:47.115Z,573.75
2018-04-29T08:09:47.083Z,500.63
2018-04-29T08:10:47.051Z,427.50
2018-04-29T08:11:47.018Z,393.75
2018-04-29T08:12:46.985Z,376.88
2018-04-29T08:13:46.953Z,365.63
2018-04-29T08:14:46.920Z,354.38
2018-04-29T08:15:46.902Z,360.00
2018-04-29T08:16:46.857Z,365.63
2018-04-29T08:17:46.820Z,365.63
2018-04-29T08:18:46.786Z,365.63
2018-04-29T08:19:46.752Z,371.25
2018-04-29T08:20:46.718Z,376.88
2018-04-29T08:21:46.684Z,388.13
2018-04-29T08:22:46.686Z,371.25
2018-04-29T08:23:46.615Z,382.50
2018-04-29T08:24:46.579Z,371.25
2018-04-29T08:25:46.545Z,365.63
2018-04-29T08:26:46.514Z,371.25
2018-04-29T08:27:46.475Z,393.75
2018-04-29T08:28:46.439Z,337.50
2018-04-29T08:29:46.454Z,309.38
2018-04-29T08:30:46.369Z,281.25
2018-04-29T08:31:46.332Z,258.75
2018-04-29T08:32:46.297Z,236.25
2018-04-29T08:33:46.262Z,213.75
2018-04-29T08:34:46.225Z,196.88
2018-04-29T08:35:46.188Z,180.00
2018-04-29T08:36:46.152Z,168.75
2018-04-29T08:37:46.115Z,163.13
2018-04-29T08:38:46.079Z,163.13
2018-04-29T08:39:46.041Z,163.13
2018-04-29T08:40:46.004Z,168.75
2018-04-29T08:41:45.981Z,180.00
2018-04-29T08:42:45.930Z,191.25
2018-04-29T08:43:45.893Z,236.25
2018-04-29T08:44:45.852Z,236.25
2018-04-29T08:45:45.815Z,945.00
2018-04-29T08:46:45.778Z,1080.00
2018-04-29T08:47:45.739Z,371.25
2018-04-29T08:48:45.704Z,382.50
2018-04-29T08:49:45.667Z,708.75
2018-04-29T08:50:45.628Z,478.13
2018-04-29T08:51:45.588Z,399.38
2018-04-29T08:52:45.551Z,691.88
2018-04-29T08:53:45.516Z,393.75
2018-04-29T08:54:45.477Z,393.75
2018-04-29T08:55:45.440Z,399.38
2018-04-29T08:56:45.404Z,405.00
2018-04-29T08:57:45.367Z,506.25
2018-04-29T08:58:45.331Z,630.00
2018-04-29T08:59:45.295Z,950.63
2018-04-29T09:00:45.257Z,1035.00
2018-04-29T09:01:45.222Z,1023.75
2018-04-29T09:02:45.187Z,1018.13
2018-04-29T09:03:45.184Z,990.00
2018-04-29T09:04:45.125Z,1012.50
2018-04-29T09:05:45.091Z,1012.50
2018-04-29T09:06:45.054Z,1001.25
2018-04-29T09:07:45.022Z,984.38
2018-04-29T09:08:44.997Z,961.88
2018-04-29T09:09:44.959Z,961.88
2018-04-29T09:10:44.928Z,984.38
2018-04-29T09:11:44.900Z,956.25
2018-04-29T09:12:44.869Z,939.38
2018-04-29T09:13:44.839Z,928.13
2018-04-29T09:14:44.815Z,933.75
2018-04-29T09:15:44.782Z,888.75
2018-04-29T09:16:44.755Z,849.38
2018-04-29T09:17:44.726Z,843.75
2018-04-29T09:18:44.699Z,843.75
2018-04-29T09:19:44.671Z,849.38
2018-04-29T09:20:44.644Z,855.00
2018-04-29T09:21:44.617Z,849.38
2018-04-29T09:22:44.597Z,843.75
2018-04-29T09:23:44.564Z,826.88
2018-04-29T09:24:44.537Z,810.00
2018-04-29T09:25:44.511Z,798.75
2018-04-29T09:26:44.485Z,781.88
2018-04-29T09:27:44.458Z,776.25
2018-04-29T09:28:44.435Z,765.00
2018-04-29T09:29:44.409Z,759.38
2018-04-29T09:30:44.380Z,742.50
2018-04-29T09:31:44.354Z,725.63
2018-04-29T09:32:44.329Z,703.13
2018-04-29T09:33:44.301Z,697.50
2018-04-29T09:34:44.279Z,691.88
2018-04-29T09:35:44.248Z,703.13
2018-04-29T09:36:44.221Z,714.38
2018-04-29T09:37:44.195Z,708.75
2018-04-29T09:38:44.169Z,697.50
2018-04-29T09:39:44.142Z,691.88
2018-04-29T09:40:44.214Z,680.63
2018-04-29T09:41:44.093Z,663.75
2018-04-29T09:42:44.060Z,652.50
2018-04-29T09:43:44.154Z,590.63
2018-04-29T09:44:44.006Z,399.38
2018-04-29T09:45:43.978Z,298.13
2018-04-29T09:46:43.950Z,298.13
2018-04-29T09:47:43.923Z,292.50
2018-04-29T09:48:43.895Z,298.13
2018-04-29T09:49:43.863Z,292.50
2018-04-29T09:50:43.834Z,292.50
2018-04-29T09:51:43.802Z,292.50
2018-04-29T09:52:43.772Z,286.88
2018-04-29T09:53:43.741Z,286.88
2018-04-29T09:54:43.710Z,286.88
2018-04-29T09:55:43.677Z,286.88
2018-04-29T09:56:43.644Z,286.88
2018-04-29T09:57:43.612Z,286.88
2018-04-29T09:58:43.580Z,286.88
2018-04-29T09:59:43.546Z,281.25
2018-04-29T10:00:43.512Z,286.88
2018-04-29T10:01:43.480Z,281.25
2018-04-29T10:02:43.445Z,281.25
2018-04-29T10:03:43.410Z,281.25
2018-04-29T10:04:43.375Z,281.25
2018-04-29T10:05:43.341Z,281.25
2018-04-29T10:06:43.307Z,281.25
2018-04-29T10:07:43.271Z,281.25
2018-04-29T10:08:43.236Z,275.63
2018-04-29T10:09:43.200Z,275.63
2018-04-29T10:10:43.168Z,275.63
2018-04-29T10:11:43.128Z,275.63
2018-04-29T10:12:43.149Z,275.63
2018-04-29T10:13:43.057Z,270.00
2018-04-29T10:14:43.020Z,270.00
2018-04-29T10:15:42.982Z,270.00
2018-04-29T10:16:42.946Z,270.00
2018-04-29T10:17:42.909Z,270.00
2018-04-29T10:18:42.921Z,270.00
2018-04-29T10:19:42.834Z,270.00
2018-04-29T10:20:42.797Z,270.00
2018-04-29T10:21:42.759Z,264.38
2018-04-29T10:22:42.722Z,264.38
2018-04-29T10:23:42.734Z,264.38
2018-04-29T10:24:42.671Z,264.38
2018-04-29T10:25:42.609Z,264.38
2018-04-29T10:26:42.573Z,264.38
2018-04-29T10:27:42.533Z,264.38
2018-04-29T10:28:42.497Z,258.75
2018-04-29T10:29:42.458Z,258.75
2018-04-29T10:30:42.420Z,258.75
2018-04-29T10:31:42.384Z,258.75
2018-04-29T10:32:42.387Z,258.75
2018-04-29T10:33:42.305Z,258.75
2018-04-29T10:34:42.268Z,253.13
2018-04-29T10:35:42.228Z,253.13
2018-04-29T10:36:42.190Z,253.13
2018-04-29T10:37:42.152Z,253.13
2018-04-29T10:38:42.120Z,247.50
2018-04-29T10:39:42.081Z,247.50
2018-04-29T10:40:42.037Z,247.50
2018-04-29T10:41:42.007Z,247.50
2018-04-29T10:42:41.961Z,241.88
2018-04-29T10:43:41.921Z,241.88
2018-04-29T10:44:41.882Z,241.88
2018-04-29T10:45:41.844Z,241.88
2018-04-29T10:46:41.808Z,236.25
2018-04-29T10:47:41.765Z,236.25
2018-04-29T10:48:41.727Z,236.25
2018-04-29T10:49:41.688Z,236.25
2018-04-29T10:50:41.650Z,236.25
2018-04-29T10:51:41.610Z,230.63
2018-04-29T10:52:41.573Z,230.63
2018-04-29T10:53:41.533Z,236.25
2018-04-29T10:54:41.495Z,236.25
2018-04-29T10:55:41.454Z,230.63
2018-04-29T10:56:41.494Z,230.63
2018-04-29T10:57:41.377Z,230.63
2018-04-29T10:58:41.418Z,230.63
2018-04-29T10:59:41.298Z,225.00
2018-04-29T11:00:41.260Z,225.00
2018-04-29T11:01:41.221Z,225.00
2018-04-29T11:02:41.182Z,225.00
2018-04-29T11:03:41.142Z,219.38
2018-04-29T11:04:41.104Z,225.00
2018-04-29T11:05:41.065Z,219.38
2018-04-29T11:06:41.026Z,213.75
2018-04-29T11:07:40.986Z,213.75
2018-04-29T11:08:40.948Z,213.75
2018-04-29T11:09:40.908Z,213.75
2018-04-29T11:10:40.869Z,208.13
2018-04-29T11:11:40.871Z,208.13
2018-04-29T11:12:40.792Z,208.13
2018-04-29T11:13:40.751Z,208.13
2018-04-29T11:14:40.713Z,208.13
2018-04-29T11:15:40.673Z,208.13
2018-04-29T11:16:40.633Z,208.13
2018-04-29T11:17:40.595Z,202.50
2018-04-29T11:18:40.555Z,202.50
2018-04-29T11:19:40.518Z,202.50
2018-04-29T11:20:40.477Z,208.13
2018-04-29T11:21:40.438Z,202.50
2018-04-29T11:22:40.398Z,202.50
2018-04-29T11:23:40.363Z,202.50
2018-04-29T11:24:40.330Z,202.50
2018-04-29T11:25:40.281Z,202.50
2018-04-29T11:26:40.241Z,196.88
2018-04-29T11:27:40.201Z,196.88
2018-04-29T11:28:40.217Z,196.88
2018-04-29T11:29:40.126Z,196.88
2018-04-29T11:30:40.084Z,196.88
2018-04-29T11:31:40.043Z,196.88
2018-04-29T11:32:40.004Z,191.25
2018-04-29T11:33:39.964Z,191.25
2018-04-29T11:34:39.925Z,191.25
2018-04-29T11:35:39.885Z,191.25
2018-04-29T11:36:39.846Z,185.63
2018-04-29T11:37:39.807Z,185.63
2018-04-29T11:38:39.768Z,185.63
2018-04-29T11:39:39.728Z,185.63
2018-04-29T11:40:39.710Z,180.00
2018-04-29T11:41:39.650Z,180.00
2018-04-29T11:42:39.612Z,180.00
2018-04-29T11:43:39.570Z,180.00
2018-04-29T11:44:39.534Z,185.63
2018-04-29T11:45:39.493Z,180.00
2018-04-29T11:46:39.465Z,180.00
2018-04-29T11:47:39.420Z,180.00
2018-04-29T11:48:39.375Z,180.00
2018-04-29T11:49:39.337Z,174.38
2018-04-29T11:50:39.296Z,174.38
2018-04-29T11:51:39.256Z,174.38
2018-04-29T11:52:39.217Z,174.38
2018-04-29T11:53:39.178Z,174.38
2018-04-29T11:54:39.139Z,174.38
2018-04-29T11:55:39.099Z,174.38
2018-04-29T11:56:39.060Z,174.38
2018-04-29T11:57:39.020Z,174.38
2018-04-29T11:58:38.982Z,174.38
2018-04-29T11:59:38.942Z,174.38
2018-04-29T12:00:38.907Z,174.38
2018-04-29T12:01:38.863Z,174.38
2018-04-29T12:02:38.906Z,168.75
2018-04-29T12:03:38.784Z,174.38
2018-04-29T12:04:38.744Z,168.75
2018-04-29T12:05:38.706Z,168.75
2018-04-29T12:06:38.666Z,168.75
2018-04-29T12:07:38.626Z,168.75
2018-04-29T12:08:38.592Z,168.75
2018-04-29T12:09:38.547Z,168.75
2018-04-29T12:10:38.508Z,168.75
2018-04-29T12:11:38.469Z,168.75
2018-04-29T12:12:38.431Z,168.75
2018-04-29T12:13:38.390Z,163.13
2018-04-29T12:14:38.354Z,163.13
2018-04-29T12:15:38.310Z,163.13
2018-04-29T12:16:38.277Z,163.13
2018-04-29T12:17:38.232Z,163.13
2018-04-29T12:18:38.193Z,163.13
2018-04-29T12:19:38.154Z,163.13
2018-04-29T12:20:38.114Z,163.13
2018-04-29T12:21:38.075Z,163.13
2018-04-29T12:22:38.100Z,163.13
2018-04-29T12:23:38.001Z,163.13
2018-04-29T12:24:38.025Z,163.13
2018-04-29T12:25:37.920Z,163.13
2018-04-29T12:26:37.879Z,163.13
2018-04-29T12:27:37.838Z,163.13
2018-04-29T12:28:37.804Z,163.13
2018-04-29T12:29:37.759Z,163.13
2018-04-29T12:30:37.721Z,163.13
2018-04-29T12:31:37.680Z,163.13
2018-04-29T12:32:37.641Z,163.13
2018-04-29T12:33:37.661Z,157.50
2018-04-29T12:34:37.563Z,157.50
2018-04-29T12:35:37.522Z,157.50
2018-04-29T12:36:37.483Z,157.50
2018-04-29T12:37:37.444Z,157.50
2018-04-29T12:38:37.405Z,157.50
2018-04-29T12:39:37.364Z,157.50
2018-04-29T12:40:37.325Z,151.88